createdAt,value
2022-08-02T00:00:22.161Z,18.32
2022-08-02T00:01:22.080Z,19.29
2022-08-02T00:02:22.038Z,18.32
2022-08-02T00:03:22.008Z,18.96
2022-08-02T00:04:22.008Z,18.64
2022-08-02T00:05:22.029Z,19.29
2022-08-02T00:06:21.968Z,18.64
2022-08-02T00:07:21.948Z,18.96
2022-08-02T00:08:21.941Z,18.64
2022-08-02T00:09:21.945Z,18.32
2022-08-02T00:10:21.920Z,18.96
2022-08-02T00:11:21.919Z,18.64
2022-08-02T00:12:21.897Z,18.32
2022-08-02T00:13:21.938Z,18.96
2022-08-02T00:14:21.881Z,18.32
2022-08-02T00:15:21.853Z,18.32
2022-08-02T00:16:21.857Z,19.61
2022-08-02T00:17:22.845Z,18.96
2022-08-02T00:18:21.837Z,18.64
2022-08-02T00:19:21.807Z,18.00
2022-08-02T00:20:21.796Z,19.29
2022-08-02T00:21:21.765Z,18.96
2022-08-02T00:22:21.850Z,18.64
2022-08-02T00:23:21.748Z,18.00
2022-08-02T00:24:29.306Z,18.00
2022-08-02T00:25:21.753Z,18.64
2022-08-02T00:26:21.720Z,18.32
2022-08-02T00:27:21.695Z,18.64
2022-08-02T00:28:23.472Z,18.00
2022-08-02T00:29:22.686Z,18.64
2022-08-02T00:30:21.648Z,18.64
2022-08-02T00:31:21.653Z,18.64
2022-08-02T00:32:21.635Z,18.00
2022-08-02T00:34:27.315Z,18.32
2022-08-02T00:34:28.724Z,18.64
2022-08-02T00:35:22.575Z,19.29
2022-08-02T00:36:21.573Z,18.32
2022-08-02T00:37:21.565Z,18.32
2022-08-02T00:38:21.555Z,18.32
2022-08-02T00:39:33.646Z,19.29
2022-08-02T00:40:22.534Z,18.64
2022-08-02T00:41:21.515Z,18.32
2022-08-02T00:42:21.505Z,18.32
2022-08-02T00:43:21.475Z,18.96
2022-08-02T00:44:21.484Z,18.32
2022-08-02T00:45:21.447Z,18.32
2022-08-02T00:46:22.453Z,11.55
2022-08-02T00:47:21.428Z,19.29
2022-08-02T00:48:21.444Z,18.32
2022-08-02T00:49:21.571Z,18.64
2022-08-02T00:50:21.394Z,18.96
2022-08-02T00:51:21.374Z,18.64
2022-08-02T00:52:21.354Z,18.96
2022-08-02T00:53:21.353Z,18.00
2022-08-02T00:54:21.347Z,18.64
2022-08-02T00:55:30.723Z,18.32
2022-08-02T00:56:22.325Z,18.64
2022-08-02T00:57:21.325Z,18.32
2022-08-02T00:58:21.283Z,18.64
2022-08-02T00:59:21.310Z,18.00
2022-08-02T01:00:21.263Z,18.96
2022-08-02T01:01:21.276Z,18.00
2022-08-02T01:02:21.386Z,18.32
2022-08-02T01:03:21.212Z,18.00
2022-08-02T01:04:30.399Z,18.00
2022-08-02T01:05:22.189Z,18.64
2022-08-02T01:06:21.172Z,18.32
2022-08-02T01:07:21.172Z,18.64
2022-08-02T01:08:21.161Z,18.00
2022-08-02T01:09:22.137Z,19.29
2022-08-02T01:10:21.101Z,18.32
2022-08-02T01:11:21.092Z,19.29
2022-08-02T01:12:21.086Z,18.64
2022-08-02T01:13:21.072Z,18.64
2022-08-02T01:14:21.081Z,18.96
2022-08-02T01:15:21.109Z,23.15
2022-08-02T01:16:21.068Z,18.00
2022-08-02T01:17:21.019Z,18.64
2022-08-02T01:18:21.004Z,19.61
2022-08-02T01:19:20.991Z,18.96
2022-08-02T01:20:21.017Z,19.61
2022-08-02T01:21:20.998Z,17.68
2022-08-02T01:22:20.971Z,18.00
2022-08-02T01:23:20.933Z,18.64
2022-08-02T01:24:20.931Z,18.64
2022-08-02T01:25:20.924Z,18.00
2022-08-02T01:26:20.900Z,17.68
2022-08-02T01:27:21.335Z,18.64
2022-08-02T01:28:20.871Z,18.96
2022-08-02T01:29:20.859Z,18.00
2022-08-02T01:30:20.859Z,18.96
2022-08-02T01:31:20.830Z,17.68
2022-08-02T01:32:20.831Z,18.32
2022-08-02T01:33:20.800Z,18.32
2022-08-02T01:34:20.793Z,18.64
2022-08-02T01:35:20.792Z,18.00
2022-08-02T01:36:20.778Z,18.32
2022-08-02T01:37:20.739Z,27.34
2022-08-02T01:38:20.729Z,18.00
2022-08-02T01:39:26.852Z,18.32
2022-08-02T01:40:21.733Z,18.64
2022-08-02T01:41:20.689Z,18.32
2022-08-02T01:42:20.700Z,17.68
2022-08-02T01:43:20.681Z,18.00
2022-08-02T01:44:27.600Z,18.32
2022-08-02T01:45:21.676Z,18.00
2022-08-02T01:46:20.671Z,18.32
2022-08-02T01:47:20.619Z,18.64
2022-08-02T01:48:20.598Z,18.00
2022-08-02T01:49:20.635Z,17.68
2022-08-02T01:50:20.606Z,18.00
2022-08-02T01:51:20.558Z,18.96
2022-08-02T01:52:20.611Z,18.00
2022-08-02T01:53:20.528Z,17.68
2022-08-02T01:54:20.527Z,17.68
2022-08-02T01:55:20.518Z,18.64
2022-08-02T01:56:20.508Z,18.00
2022-08-02T01:57:20.481Z,18.00
2022-08-02T01:58:20.468Z,17.68
2022-08-02T01:59:20.457Z,17.68
2022-08-02T02:00:20.475Z,18.00
2022-08-02T02:01:20.521Z,18.32
2022-08-02T02:02:20.458Z,18.32
2022-08-02T02:03:20.409Z,18.64
2022-08-02T02:04:20.399Z,18.32
2022-08-02T02:05:20.396Z,18.32
2022-08-02T02:06:20.366Z,17.68
2022-08-02T02:07:20.357Z,18.96
2022-08-02T02:08:27.458Z,18.00
2022-08-02T02:09:21.326Z,17.35
2022-08-02T02:10:20.338Z,17.68
2022-08-02T02:12:05.939Z,18.00
2022-08-02T02:12:21.751Z,18.00
2022-08-02T02:13:20.267Z,17.68
2022-08-02T02:14:21.266Z,18.64
2022-08-02T02:15:20.267Z,18.32
2022-08-02T02:16:20.225Z,18.32
2022-08-02T02:17:53.003Z,18.32
2022-08-02T02:18:21.215Z,17.35
2022-08-02T02:19:21.135Z,17.68
2022-08-02T02:20:20.199Z,18.00
2022-08-02T02:21:20.177Z,18.32
2022-08-02T02:22:20.165Z,18.32
2022-08-02T02:23:21.288Z,18.32
2022-08-02T02:24:21.145Z,17.03
2022-08-02T02:25:20.138Z,18.64
2022-08-02T02:26:31.145Z,18.64
2022-08-02T02:27:21.106Z,18.00
2022-08-02T02:28:20.094Z,18.32
2022-08-02T02:29:20.063Z,17.68
2022-08-02T02:30:20.068Z,18.00
2022-08-02T02:31:20.073Z,17.68
2022-08-02T02:32:20.034Z,18.32
2022-08-02T02:33:20.041Z,17.68
2022-08-02T02:34:20.008Z,17.68
2022-08-02T02:35:19.998Z,17.68
2022-08-02T02:36:19.980Z,17.35
2022-08-02T02:37:19.966Z,18.64
2022-08-02T02:38:19.968Z,18.32
2022-08-02T02:39:19.945Z,17.35
2022-08-02T02:40:19.945Z,18.32
2022-08-02T02:41:19.921Z,18.00
2022-08-02T02:42:19.896Z,17.68
2022-08-02T02:43:19.873Z,17.68
2022-08-02T02:44:19.891Z,18.64
2022-08-02T02:45:19.880Z,18.32
2022-08-02T02:46:19.843Z,17.35
2022-08-02T02:47:19.836Z,17.68
2022-08-02T02:48:19.814Z,17.03
2022-08-02T02:49:19.864Z,18.00
2022-08-02T02:50:19.807Z,17.68
2022-08-02T02:51:19.772Z,17.03
2022-08-02T02:52:19.763Z,13.81
2022-08-02T02:53:19.743Z,18.00
2022-08-02T02:54:33.644Z,18.00
2022-08-02T02:55:20.742Z,18.00
2022-08-02T02:56:19.712Z,18.00
2022-08-02T02:57:19.690Z,17.68
2022-08-02T02:58:19.683Z,18.32
2022-08-02T02:59:20.712Z,18.96
2022-08-02T03:00:19.673Z,17.35
2022-08-02T03:01:19.700Z,17.68
2022-08-02T03:02:19.627Z,17.68
2022-08-02T03:03:21.288Z,17.68
2022-08-02T03:04:19.591Z,17.35
2022-08-02T03:05:19.596Z,18.00
2022-08-02T03:06:19.571Z,18.32
2022-08-02T03:07:19.566Z,18.00
2022-08-02T03:08:19.545Z,18.32
2022-08-02T03:09:19.545Z,17.68
2022-08-02T03:10:19.550Z,17.68
2022-08-02T03:11:19.501Z,18.32
2022-08-02T03:12:20.158Z,18.00
2022-08-02T03:13:19.469Z,18.32
2022-08-02T03:14:19.464Z,18.32
2022-08-02T03:15:19.450Z,18.00
2022-08-02T03:16:19.431Z,17.68
2022-08-02T03:17:19.419Z,17.68
2022-08-02T03:18:19.400Z,17.68
2022-08-02T03:19:19.390Z,17.68
2022-08-02T03:20:19.401Z,17.35
2022-08-02T03:21:19.374Z,17.68
2022-08-02T03:22:19.351Z,18.00
2022-08-02T03:23:19.331Z,17.68
2022-08-02T03:24:27.708Z,18.00
2022-08-02T03:25:20.324Z,17.35
2022-08-02T03:26:19.299Z,15.42
2022-08-02T03:27:19.279Z,23.48
2022-08-02T03:28:19.279Z,17.68
2022-08-02T03:29:19.334Z,17.68
2022-08-02T03:30:19.271Z,18.64
2022-08-02T03:31:19.229Z,18.00
2022-08-02T03:32:19.220Z,18.32
2022-08-02T03:33:19.200Z,17.68
2022-08-02T03:34:19.198Z,17.68
2022-08-02T03:35:23.800Z,17.68
2022-08-02T03:36:20.166Z,17.68
2022-08-02T03:37:19.147Z,18.00
2022-08-02T03:38:19.159Z,17.68
2022-08-02T03:39:19.126Z,17.35
2022-08-02T03:40:19.126Z,17.35
2022-08-02T03:41:19.109Z,18.32
2022-08-02T03:42:19.087Z,17.03
2022-08-02T03:43:19.068Z,17.68
2022-08-02T03:44:19.058Z,17.68
2022-08-02T03:45:19.058Z,18.00
2022-08-02T03:46:19.035Z,17.35
2022-08-02T03:47:19.018Z,17.68
2022-08-02T03:48:33.751Z,17.35
2022-08-02T03:49:20.051Z,18.32
2022-08-02T03:50:18.989Z,17.35
2022-08-02T03:51:18.966Z,18.00
2022-08-02T03:52:18.949Z,18.00
2022-08-02T03:53:20.252Z,18.32
2022-08-02T03:54:18.926Z,17.68
2022-08-02T03:55:18.920Z,18.32
2022-08-02T03:56:18.896Z,18.00
2022-08-02T03:57:18.877Z,18.00
2022-08-02T03:58:18.877Z,18.00
2022-08-02T03:59:18.856Z,17.68
2022-08-02T04:00:18.867Z,18.32
2022-08-02T04:01:18.884Z,17.35
2022-08-02T04:02:18.816Z,17.68
2022-08-02T04:03:19.849Z,17.03
2022-08-02T04:04:18.794Z,18.64
2022-08-02T04:05:18.777Z,17.68
2022-08-02T04:06:18.777Z,17.35
2022-08-02T04:08:02.493Z,18.00
2022-08-02T04:08:36.952Z,17.35
2022-08-02T04:09:19.723Z,17.35
2022-08-02T04:10:18.706Z,17.68
2022-08-02T04:11:18.705Z,17.68
2022-08-02T04:12:18.683Z,17.68
2022-08-02T04:13:18.665Z,17.68
2022-08-02T04:14:18.655Z,18.00
2022-08-02T04:15:18.664Z,17.35
2022-08-02T04:16:18.655Z,17.68
2022-08-02T04:17:18.617Z,17.68
2022-08-02T04:18:18.621Z,17.03
2022-08-02T04:19:18.590Z,18.00
2022-08-02T04:20:18.574Z,18.00
2022-08-02T04:21:18.574Z,18.00
2022-08-02T04:22:18.557Z,18.32
2022-08-02T04:23:18.538Z,17.03
2022-08-02T04:24:18.990Z,17.68
2022-08-02T04:25:18.505Z,18.00
2022-08-02T04:26:18.526Z,18.00
2022-08-02T04:28:15.324Z,17.35
2022-08-02T04:28:19.473Z,17.35
2022-08-02T04:29:19.465Z,18.00
2022-08-02T04:30:18.443Z,18.00
2022-08-02T04:31:18.464Z,17.35
2022-08-02T04:32:18.427Z,18.32
2022-08-02T04:33:18.408Z,17.68
2022-08-02T04:34:18.391Z,17.68
2022-08-02T04:35:19.831Z,17.35
2022-08-02T04:36:31.259Z,17.35
2022-08-02T04:37:19.366Z,17.68
2022-08-02T04:38:18.345Z,17.68
2022-08-02T04:39:18.358Z,17.35
2022-08-02T04:40:18.317Z,17.68
2022-08-02T04:41:18.317Z,17.35
2022-08-02T04:42:18.282Z,15.74
2022-08-02T04:43:18.276Z,17.68
2022-08-02T04:44:18.253Z,17.68
2022-08-02T04:45:18.244Z,17.35
2022-08-02T04:46:18.253Z,18.00
2022-08-02T04:47:29.572Z,17.68
2022-08-02T04:48:19.202Z,17.68
2022-08-02T04:49:18.311Z,17.35
2022-08-02T04:50:18.192Z,17.68
2022-08-02T04:51:18.183Z,17.68
2022-08-02T04:52:18.155Z,18.32
2022-08-02T04:53:18.147Z,18.00
2022-08-02T04:54:18.123Z,18.32
2022-08-02T04:55:18.113Z,18.64
2022-08-02T04:56:18.128Z,17.68
2022-08-02T04:57:18.090Z,17.68
2022-08-02T04:58:39.365Z,18.00
2022-08-02T04:59:19.091Z,17.68
2022-08-02T05:00:18.060Z,18.32
2022-08-02T05:01:18.102Z,17.35
2022-08-02T05:02:18.022Z,17.68
2022-08-02T05:03:18.017Z,17.68
2022-08-02T05:04:17.991Z,17.68
2022-08-02T05:05:17.992Z,18.00
2022-08-02T05:06:19.550Z,17.68
2022-08-02T05:07:17.960Z,17.68
2022-08-02T05:08:17.939Z,17.35
2022-08-02T05:09:17.931Z,18.00
2022-08-02T05:10:17.917Z,18.00
2022-08-02T05:11:17.919Z,17.68
2022-08-02T05:12:17.890Z,17.03
2022-08-02T05:13:17.881Z,17.03
2022-08-02T05:14:17.906Z,17.68
2022-08-02T05:15:17.851Z,17.68
2022-08-02T05:16:17.860Z,17.68
2022-08-02T05:17:17.820Z,18.00
2022-08-02T05:18:17.801Z,17.35
2022-08-02T05:19:17.800Z,18.00
2022-08-02T05:20:17.807Z,17.68
2022-08-02T05:21:17.791Z,17.35
2022-08-02T05:22:17.751Z,17.68
2022-08-02T05:23:17.763Z,17.68
2022-08-02T05:24:17.730Z,18.00
2022-08-02T05:25:17.709Z,17.68
2022-08-02T05:26:17.742Z,17.68
2022-08-02T05:27:21.490Z,18.00
2022-08-02T05:28:17.672Z,17.03
2022-08-02T05:29:17.667Z,17.68
2022-08-02T05:30:17.650Z,17.68
2022-08-02T05:31:17.650Z,17.68
2022-08-02T05:32:17.619Z,17.68
2022-08-02T05:33:17.620Z,18.00
2022-08-02T05:34:17.599Z,17.03
2022-08-02T05:35:17.589Z,17.68
2022-08-02T05:36:17.569Z,17.35
2022-08-02T05:37:17.560Z,18.00
2022-08-02T05:38:17.537Z,17.35
2022-08-02T05:39:18.868Z,18.00
2022-08-02T05:40:17.525Z,17.68
2022-08-02T05:41:18.524Z,17.35
2022-08-02T05:42:17.490Z,18.00
2022-08-02T05:43:17.490Z,18.00
2022-08-02T05:44:17.471Z,17.68
2022-08-02T05:45:17.449Z,17.68
2022-08-02T05:46:17.449Z,18.00
2022-08-02T05:47:17.448Z,17.68
2022-08-02T05:48:17.402Z,17.68
2022-08-02T05:49:17.456Z,18.00
2022-08-02T05:50:17.380Z,18.00
2022-08-02T05:51:17.389Z,18.00
2022-08-02T05:52:17.360Z,18.00
2022-08-02T05:53:17.338Z,17.35
2022-08-02T05:54:17.329Z,17.68
2022-08-02T05:55:17.321Z,17.68
2022-08-02T05:56:17.321Z,18.00
2022-08-02T05:57:17.282Z,18.32
2022-08-02T05:58:17.271Z,18.00
2022-08-02T05:59:17.269Z,17.35
2022-08-02T06:00:17.248Z,18.00
2022-08-02T06:01:17.347Z,17.68
2022-08-02T06:02:20.188Z,18.32
2022-08-02T06:03:17.209Z,17.68
2022-08-02T06:04:17.198Z,17.68
2022-08-02T06:05:17.200Z,17.68
2022-08-02T06:06:17.178Z,18.00
2022-08-02T06:07:17.160Z,17.03
2022-08-02T06:08:17.158Z,17.03
2022-08-02T06:09:17.126Z,18.00
2022-08-02T06:10:18.126Z,18.00
2022-08-02T06:11:17.129Z,17.68
2022-08-02T06:12:17.307Z,17.35
2022-08-02T06:13:17.090Z,17.68
2022-08-02T06:14:17.058Z,18.32
2022-08-02T06:15:17.059Z,17.68
2022-08-02T06:16:18.111Z,18.00
2022-08-02T06:17:18.026Z,17.35
2022-08-02T06:18:17.009Z,17.68
2022-08-02T06:19:16.991Z,18.32
2022-08-02T06:20:17.000Z,17.68
2022-08-02T06:22:40.655Z,17.68
2022-08-02T06:22:42.028Z,17.68
2022-08-02T06:23:17.939Z,17.68
2022-08-02T06:24:16.936Z,18.00
2022-08-02T06:25:48.189Z,18.00
2022-08-02T06:26:17.918Z,17.68
2022-08-02T06:27:16.927Z,17.68
2022-08-02T06:28:16.893Z,18.64
2022-08-02T06:29:16.894Z,18.00
2022-08-02T06:30:16.851Z,18.00
2022-08-02T06:31:16.848Z,18.00
2022-08-02T06:32:16.825Z,18.32
2022-08-02T06:33:16.808Z,18.32
2022-08-02T06:34:16.805Z,18.32
2022-08-02T06:35:16.782Z,18.64
2022-08-02T06:36:16.769Z,17.35
2022-08-02T06:37:16.760Z,18.00
2022-08-02T06:38:16.739Z,17.68
2022-08-02T06:39:16.730Z,18.32
2022-08-02T06:40:16.710Z,18.00
2022-08-02T06:41:16.718Z,17.35
2022-08-02T06:42:16.697Z,18.00
2022-08-02T06:43:17.689Z,18.32
2022-08-02T06:45:17.698Z,18.00
2022-08-02T06:46:53.339Z,17.68
2022-08-02T06:47:17.619Z,18.32
2022-08-02T06:48:16.631Z,18.32
2022-08-02T06:49:16.666Z,18.00
2022-08-02T06:50:16.588Z,18.32
2022-08-02T06:51:16.579Z,19.29
2022-08-02T06:52:18.849Z,17.68
2022-08-02T06:53:16.550Z,18.00
2022-08-02T06:54:16.530Z,17.68
2022-08-02T06:55:16.534Z,18.32
2022-08-02T06:56:16.530Z,17.68
2022-08-02T06:57:16.498Z,17.68
2022-08-02T06:58:16.479Z,18.32
2022-08-02T06:59:16.478Z,18.00
2022-08-02T07:00:16.441Z,18.32
2022-08-02T07:01:16.488Z,17.68
2022-08-02T07:02:16.446Z,18.64
2022-08-02T07:03:16.420Z,18.00
2022-08-02T07:04:19.921Z,18.32
2022-08-02T07:05:16.391Z,18.64
2022-08-02T07:06:16.368Z,18.64
2022-08-02T07:07:16.419Z,18.32
2022-08-02T07:08:16.340Z,20.90
2022-08-02T07:09:21.004Z,18.32
2022-08-02T07:10:17.320Z,18.32
2022-08-02T07:11:16.309Z,18.00
2022-08-02T07:12:16.309Z,18.00
2022-08-02T07:13:16.288Z,18.96
2022-08-02T07:14:16.259Z,18.64
2022-08-02T07:15:16.253Z,18.64
2022-08-02T07:16:16.240Z,18.64
2022-08-02T07:17:16.252Z,18.96
2022-08-02T07:18:16.219Z,18.64
2022-08-02T07:19:16.203Z,18.96
2022-08-02T07:20:16.178Z,18.64
2022-08-02T07:21:16.172Z,25.41
2022-08-02T07:22:16.470Z,18.96
2022-08-02T07:23:16.181Z,18.96
2022-08-02T07:24:16.128Z,18.00
2022-08-02T07:25:16.119Z,18.64
2022-08-02T07:26:16.101Z,18.64
2022-08-02T07:27:16.122Z,18.96
2022-08-02T07:28:23.635Z,18.32
2022-08-02T07:29:17.070Z,18.96
2022-08-02T07:30:16.050Z,18.96
2022-08-02T07:31:16.040Z,18.64
2022-08-02T07:32:16.119Z,19.29
2022-08-02T07:33:37.897Z,19.29
2022-08-02T07:34:17.015Z,18.64
2022-08-02T07:35:16.312Z,18.64
2022-08-02T07:36:16.961Z,18.96
2022-08-02T07:37:26.917Z,19.29
2022-08-02T07:38:16.950Z,18.96
2022-08-02T07:39:15.931Z,18.96
2022-08-02T07:40:20.653Z,18.32
2022-08-02T07:41:16.902Z,18.64
2022-08-02T07:42:15.911Z,18.64
2022-08-02T07:43:15.882Z,18.96
2022-08-02T07:44:15.912Z,18.64
2022-08-02T07:45:15.858Z,18.64
2022-08-02T07:46:15.841Z,19.61
2022-08-02T07:47:15.873Z,18.96
2022-08-02T07:48:15.812Z,19.29
2022-08-02T07:49:15.836Z,19.29
2022-08-02T07:50:15.782Z,19.29
2022-08-02T07:51:17.390Z,19.93
2022-08-02T07:52:15.783Z,19.61
2022-08-02T07:53:15.762Z,19.61
2022-08-02T07:54:16.934Z,18.96
2022-08-02T07:55:15.721Z,18.96
2022-08-02T07:56:15.702Z,19.29
2022-08-02T07:57:15.723Z,19.29
2022-08-02T07:58:15.682Z,18.96
2022-08-02T07:59:15.662Z,20.25
2022-08-02T08:00:15.653Z,20.25
2022-08-02T08:01:15.670Z,19.29
2022-08-02T08:02:15.642Z,19.93
2022-08-02T08:03:15.621Z,20.58
2022-08-02T08:04:15.612Z,19.93
2022-08-02T08:05:15.582Z,19.93
2022-08-02T08:06:15.562Z,19.61
2022-08-02T08:07:15.562Z,19.29
2022-08-02T08:08:17.708Z,19.61
2022-08-02T08:09:15.561Z,20.90
2022-08-02T08:10:15.513Z,20.25
2022-08-02T08:11:15.516Z,19.61
2022-08-02T08:12:15.494Z,20.25
2022-08-02T08:13:15.497Z,19.93
2022-08-02T08:14:17.028Z,19.61
2022-08-02T08:15:15.453Z,20.25
2022-08-02T08:16:15.451Z,19.93
2022-08-02T08:17:15.442Z,20.25
2022-08-02T08:18:15.404Z,20.25
2022-08-02T08:19:15.405Z,20.58
2022-08-02T08:20:15.982Z,19.93
2022-08-02T08:21:15.374Z,19.61
2022-08-02T08:22:15.374Z,20.58
2022-08-02T08:23:15.356Z,19.93
2022-08-02T08:24:15.342Z,20.58
2022-08-02T08:25:15.316Z,19.61
2022-08-02T08:26:15.873Z,19.93
2022-08-02T08:27:15.305Z,20.25
2022-08-02T08:28:15.264Z,19.93
2022-08-02T08:29:15.262Z,20.25
2022-08-02T08:30:15.246Z,19.61
2022-08-02T08:31:15.234Z,19.93
2022-08-02T08:32:17.553Z,19.93
2022-08-02T08:33:15.205Z,19.93
2022-08-02T08:34:15.206Z,19.93
2022-08-02T08:35:15.184Z,19.93
2022-08-02T08:36:15.167Z,20.25
2022-08-02T08:37:17.884Z,20.25
2022-08-02T08:38:15.135Z,20.58
2022-08-02T08:39:15.135Z,20.58
2022-08-02T08:40:19.607Z,20.25
2022-08-02T08:41:15.115Z,19.93
2022-08-02T08:42:15.280Z,19.93
2022-08-02T08:43:15.076Z,19.61
2022-08-02T08:44:15.075Z,20.58
2022-08-02T08:45:15.046Z,20.58
2022-08-02T08:46:15.049Z,20.90
2022-08-02T08:47:15.044Z,19.93
2022-08-02T08:48:15.020Z,20.25
2022-08-02T08:49:16.026Z,19.93
2022-08-02T08:50:19.074Z,20.25
2022-08-02T08:51:15.976Z,20.25
2022-08-02T08:52:15.196Z,20.25
2022-08-02T08:53:14.947Z,19.93
2022-08-02T08:54:14.948Z,20.58
2022-08-02T08:55:14.927Z,20.25
2022-08-02T08:56:16.468Z,20.25
2022-08-02T08:57:14.909Z,20.90
2022-08-02T08:58:14.888Z,19.93
2022-08-02T08:59:14.878Z,20.58
2022-08-02T09:00:14.868Z,20.90
2022-08-02T09:01:14.886Z,20.25
2022-08-02T09:02:19.546Z,20.58
2022-08-02T09:03:15.818Z,20.58
2022-08-02T09:04:14.830Z,20.90
2022-08-02T09:05:14.798Z,20.90
2022-08-02T09:06:14.789Z,20.90
2022-08-02T09:07:14.799Z,20.58
2022-08-02T09:08:16.990Z,21.54
2022-08-02T09:09:14.741Z,20.90
2022-08-02T09:10:14.729Z,20.90
2022-08-02T09:11:14.720Z,20.90
2022-08-02T09:12:15.200Z,20.90
2022-08-02T09:13:37.856Z,21.22
2022-08-02T09:14:15.689Z,21.22
2022-08-02T09:15:16.125Z,20.90
2022-08-02T09:16:15.075Z,21.22
2022-08-02T09:17:14.649Z,21.87
2022-08-02T09:18:14.631Z,21.22
2022-08-02T09:19:14.613Z,21.54
2022-08-02T09:20:14.600Z,21.54
2022-08-02T09:21:14.580Z,21.22
2022-08-02T09:22:15.898Z,21.22
2022-08-02T09:23:14.559Z,23.80
2022-08-02T09:24:14.550Z,21.22
2022-08-02T09:25:14.529Z,21.54
2022-08-02T09:26:14.525Z,21.87
2022-08-02T09:27:14.521Z,21.22
2022-08-02T09:28:14.501Z,20.25
2022-08-02T09:29:14.482Z,21.87
2022-08-02T09:30:15.462Z,21.87
2022-08-02T09:31:14.464Z,21.54
2022-08-02T09:32:14.767Z,21.87
2022-08-02T09:33:14.431Z,21.22
2022-08-02T09:34:14.434Z,21.87
2022-08-02T09:35:15.435Z,22.19
2022-08-02T09:36:14.402Z,21.87
2022-08-02T09:37:14.392Z,22.19
2022-08-02T09:38:14.373Z,21.87
2022-08-02T09:39:14.353Z,25.09
2022-08-02T09:40:14.351Z,21.54
2022-08-02T09:41:14.322Z,22.19
2022-08-02T09:42:14.892Z,22.51
2022-08-02T09:43:14.304Z,22.19
2022-08-02T09:44:16.258Z,21.87
2022-08-02T09:45:14.273Z,22.51
2022-08-02T09:46:14.272Z,22.19
2022-08-02T09:47:14.266Z,22.83
2022-08-02T09:48:14.240Z,22.19
2022-08-02T09:49:14.286Z,35.40
2022-08-02T09:50:15.186Z,22.19
2022-08-02T09:51:14.201Z,21.87
2022-08-02T09:52:14.625Z,22.19
2022-08-02T09:53:14.174Z,21.87
2022-08-02T09:54:14.264Z,22.51
2022-08-02T09:55:14.147Z,22.51
2022-08-02T09:56:34.300Z,22.51
2022-08-02T09:57:15.185Z,22.51
2022-08-02T09:58:14.135Z,22.51
2022-08-02T09:59:14.094Z,21.87
2022-08-02T10:00:23.285Z,22.51
2022-08-02T10:01:15.111Z,22.51
2022-08-02T10:02:16.952Z,13.16
2022-08-02T10:03:16.015Z,22.51
2022-08-02T10:04:21.324Z,21.87
2022-08-02T10:05:15.037Z,22.83
2022-08-02T10:06:14.003Z,23.48
2022-08-02T10:07:13.990Z,22.83
2022-08-02T10:08:13.985Z,22.83
2022-08-02T10:09:13.955Z,22.83
2022-08-02T10:10:13.994Z,22.83
2022-08-02T10:11:13.926Z,23.48
2022-08-02T10:12:14.361Z,23.48
2022-08-02T10:13:13.968Z,23.80
2022-08-02T10:14:14.895Z,22.83
2022-08-02T10:15:13.875Z,23.15
2022-08-02T10:16:13.897Z,23.80
2022-08-02T10:17:13.858Z,23.80
2022-08-02T10:18:36.930Z,24.44
2022-08-02T10:19:14.826Z,24.44
2022-08-02T10:20:13.887Z,23.48
2022-08-02T10:21:13.796Z,23.48
2022-08-02T10:22:14.322Z,24.12
2022-08-02T10:23:13.837Z,23.80
2022-08-02T10:24:13.778Z,23.80
2022-08-02T10:25:13.746Z,23.15
2022-08-02T10:26:13.738Z,23.80
2022-08-02T10:27:13.719Z,23.80
2022-08-02T10:28:16.516Z,23.80
2022-08-02T10:29:13.688Z,23.48
2022-08-02T10:30:13.765Z,24.12
2022-08-02T10:31:13.669Z,24.44
2022-08-02T10:32:14.150Z,23.48
2022-08-02T10:33:13.662Z,23.80
2022-08-02T10:34:13.638Z,23.80
2022-08-02T10:35:23.347Z,23.80
2022-08-02T10:36:14.743Z,24.44
2022-08-02T10:37:14.797Z,24.44
2022-08-02T10:38:13.589Z,24.12
2022-08-02T10:39:13.559Z,24.44
2022-08-02T10:40:13.557Z,24.12
2022-08-02T10:41:13.554Z,23.80
2022-08-02T10:42:13.992Z,24.12
2022-08-02T10:43:13.532Z,24.12
2022-08-02T10:44:24.192Z,24.12
2022-08-02T10:45:14.489Z,23.48
2022-08-02T10:46:13.469Z,23.80
2022-08-02T10:47:15.079Z,24.44
2022-08-02T10:48:13.458Z,24.77
2022-08-02T10:49:38.186Z,24.77
2022-08-02T10:50:14.677Z,24.12
2022-08-02T10:51:13.409Z,25.41
2022-08-02T10:52:13.536Z,24.12
2022-08-02T10:53:13.381Z,24.77
2022-08-02T10:54:13.370Z,24.12
2022-08-02T10:55:14.794Z,24.44
2022-08-02T10:56:14.340Z,24.12
2022-08-02T10:57:15.191Z,23.48
2022-08-02T10:58:13.323Z,23.80
2022-08-02T10:59:13.887Z,24.77
2022-08-02T11:00:17.295Z,24.44
2022-08-02T11:01:14.361Z,24.44
2022-08-02T11:02:13.600Z,24.44
2022-08-02T11:03:13.272Z,24.44
2022-08-02T11:04:13.251Z,23.80
2022-08-02T11:05:13.232Z,25.09
2022-08-02T11:06:24.677Z,24.77
2022-08-02T11:07:14.203Z,24.12
2022-08-02T11:08:13.193Z,24.77
2022-08-02T11:09:13.162Z,24.12
2022-08-02T11:10:13.152Z,25.09
2022-08-02T11:11:13.134Z,24.44
2022-08-02T11:12:13.461Z,24.77
2022-08-02T11:13:13.115Z,24.77
2022-08-02T11:14:13.104Z,24.44
2022-08-02T11:15:13.074Z,30.24
2022-08-02T11:16:13.071Z,24.77
2022-08-02T11:17:13.053Z,26.38
2022-08-02T11:18:13.054Z,25.09
2022-08-02T11:19:13.023Z,24.12
2022-08-02T11:20:13.027Z,25.09
2022-08-02T11:21:13.040Z,25.09
2022-08-02T11:22:13.369Z,25.09
2022-08-02T11:23:12.985Z,25.41
2022-08-02T11:24:12.979Z,24.77
2022-08-02T11:25:12.944Z,25.41
2022-08-02T11:26:12.935Z,25.41
2022-08-02T11:27:12.914Z,27.34
2022-08-02T11:28:12.922Z,23.80
2022-08-02T11:29:15.823Z,19.61
2022-08-02T11:30:12.885Z,24.77
2022-08-02T11:31:12.865Z,25.09
2022-08-02T11:32:13.176Z,25.41
2022-08-02T11:33:12.861Z,26.05
2022-08-02T11:34:37.712Z,25.09
2022-08-02T11:35:13.817Z,28.31
2022-08-02T11:36:12.813Z,25.41
2022-08-02T11:37:12.786Z,25.73
2022-08-02T11:38:12.787Z,25.73
2022-08-02T11:39:12.759Z,24.77
2022-08-02T11:40:19.610Z,25.09
2022-08-02T11:41:13.735Z,25.41
2022-08-02T11:42:14.102Z,25.41
2022-08-02T11:43:12.718Z,25.41
2022-08-02T11:44:12.696Z,25.41
2022-08-02T11:45:12.676Z,25.09
2022-08-02T11:46:13.667Z,25.09
2022-08-02T11:47:12.649Z,25.09
2022-08-02T11:48:12.667Z,25.09
2022-08-02T11:49:12.670Z,25.09
2022-08-02T11:50:12.616Z,25.09
2022-08-02T11:51:12.601Z,24.77
2022-08-02T11:52:12.864Z,24.77
2022-08-02T11:53:12.598Z,24.44
2022-08-02T11:54:12.568Z,25.09
2022-08-02T11:55:12.546Z,24.44
2022-08-02T11:56:12.540Z,24.12
2022-08-02T11:57:15.578Z,25.09
2022-08-02T11:58:13.539Z,24.77
2022-08-02T11:59:14.677Z,25.09
2022-08-02T12:00:12.503Z,24.77
2022-08-02T12:01:12.469Z,24.12
2022-08-02T12:02:12.692Z,24.12
2022-08-02T12:03:13.580Z,23.80
2022-08-02T12:04:12.450Z,24.44
2022-08-02T12:05:12.479Z,23.80
2022-08-02T12:06:16.706Z,24.77
2022-08-02T12:07:12.389Z,23.80
2022-08-02T12:08:12.404Z,25.09
2022-08-02T12:09:13.109Z,24.12
2022-08-02T12:10:18.270Z,23.80
2022-08-02T12:11:13.343Z,23.80
2022-08-02T12:12:12.521Z,24.44
2022-08-02T12:13:12.311Z,24.12
2022-08-02T12:14:12.329Z,23.48
2022-08-02T12:15:12.292Z,23.80
2022-08-02T12:16:12.280Z,24.12
2022-08-02T12:17:12.262Z,24.12
2022-08-02T12:18:12.262Z,23.80
2022-08-02T12:19:12.267Z,24.12
2022-08-02T12:20:12.231Z,24.44
2022-08-02T12:21:12.214Z,23.80
2022-08-02T12:22:12.576Z,24.12
2022-08-02T12:23:12.203Z,24.44
2022-08-02T12:24:12.197Z,24.44
2022-08-02T12:25:12.162Z,23.80
2022-08-02T12:26:16.266Z,23.48
2022-08-02T12:27:12.133Z,23.80
2022-08-02T12:28:16.962Z,23.80
2022-08-02T12:29:13.135Z,23.80
2022-08-02T12:30:12.106Z,24.12
2022-08-02T12:31:12.085Z,23.48
2022-08-02T12:32:12.350Z,23.15
2022-08-02T12:33:13.142Z,23.80
2022-08-02T12:34:12.065Z,23.80
2022-08-02T12:35:12.040Z,23.48
2022-08-02T12:36:12.036Z,23.48
2022-08-02T12:37:12.006Z,23.48
2022-08-02T12:38:12.004Z,23.80
2022-08-02T12:39:11.997Z,23.80
2022-08-02T12:40:11.978Z,23.80
2022-08-02T12:41:30.489Z,23.15
2022-08-02T12:42:13.162Z,23.48
2022-08-02T12:43:11.944Z,23.48
2022-08-02T12:44:11.936Z,22.83
2022-08-02T12:45:11.906Z,23.48
2022-08-02T12:46:11.897Z,23.80
2022-08-02T12:47:11.885Z,23.15
2022-08-02T12:48:11.875Z,23.48
2022-08-02T12:49:19.409Z,23.48
2022-08-02T12:50:12.848Z,23.15
2022-08-02T12:51:11.827Z,23.48
2022-08-02T12:52:11.844Z,23.80
2022-08-02T12:53:11.810Z,23.15